Terminal Aerodrome Forecast
Issued by NWS

Home | Current Version | Previous Version | Text Only | Print | Product List | Glossary On
Versions: 1 2 3 4 5 6 7 8 9 10 11 12 13 14 15 16
000
FTAK31 PAJN 110537
TAFASI
TAF
PASI 110537Z 1106/1206 12020G28KT P6SM -RA OVC050 WS020/14060KT
     FM111000 13013G18KT 5SM RA BR BKN018 OVC025 WS020/16040KT
     FM111800 14008KT 4SM -RA BR BKN010 OVC025
     FM120300 14005KT P6SM -RA SCT020 BKN030 OVC050=

USA.gov is the U.S. government's official web portal to all federal, state and local government web resources and services.